Airfield :
LOGIN :

Register | Disclaimer

   EN    FR    IT 

 










Legend :    VFR   Marginal VFR   IFR   Intensive IFR   Very Intensive IFR
Visi :
Ceiling :
>= 8 km
>= 3000ft
5 to 8 km
1000 to 3000 ft
1500m to 5 km
500 to 1000 ft
800 to 1500m
200 to 500 ft
< 800m
< 200 ft
Symbols :   Thunderstorms  Fog  Heavy snow  Heavy precipitations  Wind > 20 kt
SIGMETs :     Misc.  Thunderstorms  Icing  Turbulence  Mountain Waves  Volcanic Ashes






- Airport Elevation : 37 ft


EHVL - Vlieland Heliport

CURRENT METAR :
  • 231855Z AUTO 19014KT 9999 OVC150 07/04 Q0990 BLU

EXPIRED METARs :
  • 231825Z AUTO 20014KT 9999 OVC140 07/04 Q0990 BLU
  • 231755Z AUTO 20015KT 9999 FEW023 SCT045 OVC170 07/04 Q0989 BLU
  • 231725Z AUTO 22019KT 9999 FEW015CB OVC190 07/04 Q0989 BLU
  • 231712Z AUTO 21015KT 9999 FEW016 SCT022 OVC210 07/04 Q0989 WHT
  • 231655Z AUTO 21013KT 9999 SCT019 BKN022 BKN026 07/04 Q0989 WHT
  • 231625Z AUTO 22018KT 9999 FEW022 BKN240 07/04 Q0989 BLU
  • 231555Z AUTO 23019KT 9999 FEW022 SCT029 08/04 Q0988 BLU
  • 231525Z AUTO 24020KT 9999 SCT019 BKN023 OVC230 08/04 Q0988 WHT
  • 231505Z AUTO 24021KT 9999 SCT021 BKN024 08/04 Q0988 WHT
  • 231504Z AUTO 24021KT 9999 SCT021 BKN025 08/03 Q0988 WHT
  • 231425Z AUTO 24020KT 9999 FEW028 SCT031 08/03 Q0987 BLU

Expired Forecast.



MET'MAP, your aeronautical weather chart ! - Copyright ORBIFLY December 2007 - Disclaimer

ORBIFLY MET'MAP TEAM :

Programming & Development : Alexandra Zaïnal
Original concept : Baudouin d'Aumeries
Technical & hardware support : Manuel Goepfert
Assistance : Marc-Olivier Méhu




SOURCES & CREDITS :

   NOAA